| Back to River Map | <<< Previous Forecast Point | | | Next Forecast Point >>> | Printer Version | Graph Version |  |
|
SALINAS RIVER - SOLEDAD (SDDC1)
| Latitude: 36.41º N | Longitude: 121.32º W | Elevation: 151 Feet | | Forecast Type: Unofficial Location |
| Location: Monterey County in California | Bulletin Group: Central Coast | River Group: Salinas/Pajaro |
| Issuance Time: | May 03 2026 at 9:00 AM PDT | Next Issuance: | May 04 2026 at 9:00 AM PDT
| |
| Action/Monitor: 16.0 Feet | Minor Flood: 18.0 Feet | Moderate Flood: N/A | Major Flood: N/A |
# Tabular Observed and Forecast Hydrograph Information
#
# Location: Salinas River - Soledad (SDDC1)
#
# File Generation Time: 05/03/2026 at 09:01 AM PDT
# Data Interval: 1 Hour
#
# Most Recent Date & Time of Maximum Observed: 04/28/2026 at 07:00 PM PDT
# Maximum Observed Stage: 9.63 Feet
# Maximum Observed Flow: 136 cfs
#
# Earliest Date & Time of Maximum Forecast: 05/04/2026 at 11:00 PM PDT
# Maximum Forecast Stage: 9.59 Feet
# Maximum Forecast Flow: 127 cfs
#
# OBSERVED
#
# Date & Time (Local) Stage (Feet) Flow (cfs) Trend Observed Status
# ---------------------------------------------------------------------------------
04/28/2026 09 AM PDT 9.60 129 Normal
04/28/2026 10 AM PDT 9.60 129 0 Normal
04/28/2026 11 AM PDT 9.61 131 + Normal
04/28/2026 12 PM PDT 9.61 131 0 Normal
04/28/2026 01 PM PDT 9.61 131 0 Normal
04/28/2026 02 PM PDT 9.60 129 - Normal
04/28/2026 03 PM PDT 9.60 129 0 Normal
04/28/2026 04 PM PDT 9.59 127 - Normal
04/28/2026 05 PM PDT 9.60 129 + Normal
04/28/2026 06 PM PDT 9.60 129 0 Normal
04/28/2026 07 PM PDT 9.63 136 + Normal
04/28/2026 08 PM PDT 9.59 127 - Normal
04/28/2026 09 PM PDT 9.59 127 0 Normal
04/28/2026 10 PM PDT 9.58 125 - Normal
04/28/2026 11 PM PDT 9.58 125 0 Normal
04/29/2026 12 AM PDT 9.58 125 0 Normal
04/29/2026 01 AM PDT 9.57 122 - Normal
04/29/2026 02 AM PDT 9.58 125 + Normal
04/29/2026 03 AM PDT 9.57 122 - Normal
04/29/2026 04 AM PDT 9.58 125 + Normal
04/29/2026 05 AM PDT 9.57 122 - Normal
04/29/2026 06 AM PDT 9.57 122 0 Normal
04/29/2026 07 AM PDT 9.57 122 0 Normal
04/29/2026 08 AM PDT 9.56 120 - Normal
04/29/2026 09 AM PDT 9.55 118 - Normal
04/29/2026 10 AM PDT 9.56 120 + Normal
04/29/2026 11 AM PDT 9.56 120 0 Normal
04/29/2026 12 PM PDT 9.56 120 0 Normal
04/29/2026 01 PM PDT 9.57 122 + Normal
04/29/2026 02 PM PDT 9.58 125 + Normal
04/29/2026 03 PM PDT 9.56 120 - Normal
04/29/2026 04 PM PDT 9.57 122 + Normal
04/29/2026 05 PM PDT 9.57 122 0 Normal
04/29/2026 06 PM PDT 9.59 127 + Normal
04/29/2026 07 PM PDT 9.60 129 + Normal
04/29/2026 08 PM PDT 9.57 122 - Normal
04/29/2026 09 PM PDT 9.56 120 - Normal
04/29/2026 10 PM PDT 9.55 118 - Normal
04/29/2026 11 PM PDT 9.55 118 0 Normal
04/30/2026 12 AM PDT 9.54 116 - Normal
04/30/2026 01 AM PDT 9.55 118 + Normal
04/30/2026 02 AM PDT 9.55 118 0 Normal
04/30/2026 03 AM PDT 9.54 116 - Normal
04/30/2026 04 AM PDT 9.55 118 + Normal
04/30/2026 05 AM PDT 9.55 118 0 Normal
04/30/2026 06 AM PDT 9.55 118 0 Normal
04/30/2026 07 AM PDT 9.54 116 - Normal
04/30/2026 08 AM PDT 9.54 116 0 Normal
04/30/2026 09 AM PDT 9.53 114 - Normal
04/30/2026 10 AM PDT 9.53 114 0 Normal
04/30/2026 11 AM PDT 9.53 114 0 Normal
04/30/2026 12 PM PDT 9.54 116 + Normal
04/30/2026 01 PM PDT 9.54 116 0 Normal
04/30/2026 02 PM PDT 9.54 116 0 Normal
04/30/2026 03 PM PDT 9.54 116 0 Normal
04/30/2026 04 PM PDT 9.54 116 0 Normal
04/30/2026 05 PM PDT 9.55 118 + Normal
04/30/2026 06 PM PDT 9.53 114 - Normal
04/30/2026 07 PM PDT 9.53 114 0 Normal
04/30/2026 08 PM PDT 9.52 112 - Normal
04/30/2026 09 PM PDT 9.53 114 + Normal
04/30/2026 10 PM PDT 9.54 116 + Normal
04/30/2026 11 PM PDT 9.52 112 - Normal
05/01/2026 12 AM PDT 9.52 112 0 Normal
05/01/2026 01 AM PDT 9.52 112 0 Normal
05/01/2026 02 AM PDT 9.51 109 - Normal
05/01/2026 03 AM PDT 9.52 112 + Normal
05/01/2026 04 AM PDT 9.51 109 - Normal
05/01/2026 05 AM PDT 9.50 107 - Normal
05/01/2026 06 AM PDT 9.51 109 + Normal
05/01/2026 07 AM PDT 9.50 107 - Normal
05/01/2026 08 AM PDT 9.51 109 + Normal
05/01/2026 09 AM PDT 9.52 112 + Normal
05/01/2026 10 AM PDT 9.50 107 - Normal
05/01/2026 11 AM PDT 9.51 109 + Normal
05/01/2026 12 PM PDT 9.51 109 0 Normal
05/01/2026 01 PM PDT 9.50 107 - Normal
05/01/2026 02 PM PDT 9.51 109 + Normal
05/01/2026 03 PM PDT 9.51 109 0 Normal
05/01/2026 04 PM PDT 9.51 109 0 Normal
05/01/2026 05 PM PDT 9.51 109 0 Normal
05/01/2026 06 PM PDT 9.51 109 0 Normal
05/01/2026 07 PM PDT 9.51 109 0 Normal
05/01/2026 08 PM PDT 9.52 112 + Normal
05/01/2026 09 PM PDT 9.50 107 - Normal
05/01/2026 10 PM PDT 9.51 109 + Normal
05/01/2026 11 PM PDT 9.52 112 + Normal
05/02/2026 12 AM PDT 9.51 109 - Normal
05/02/2026 01 AM PDT 9.51 109 0 Normal
05/02/2026 02 AM PDT 9.51 109 0 Normal
05/02/2026 03 AM PDT 9.51 109 0 Normal
05/02/2026 04 AM PDT 9.50 107 - Normal
05/02/2026 05 AM PDT 9.51 109 + Normal
05/02/2026 06 AM PDT 9.51 109 0 Normal
05/02/2026 07 AM PDT 9.51 109 0 Normal
05/02/2026 08 AM PDT 9.51 109 0 Normal
05/02/2026 09 AM PDT 9.52 112 + Normal
05/02/2026 10 AM PDT 9.52 112 0 Normal
05/02/2026 11 AM PDT 9.50 107 - Normal
05/02/2026 12 PM PDT 9.50 107 0 Normal
05/02/2026 01 PM PDT 9.50 107 0 Normal
05/02/2026 02 PM PDT 9.50 107 0 Normal
05/02/2026 03 PM PDT 9.51 109 + Normal
05/02/2026 04 PM PDT 9.50 107 - Normal
05/02/2026 05 PM PDT 9.50 107 0 Normal
05/02/2026 06 PM PDT 9.50 107 0 Normal
05/02/2026 07 PM PDT 9.49 105 - Normal
05/02/2026 08 PM PDT 9.49 105 0 Normal
05/02/2026 09 PM PDT 9.50 107 + Normal
05/02/2026 10 PM PDT 9.50 107 0 Normal
05/02/2026 11 PM PDT 9.51 109 + Normal
05/03/2026 12 AM PDT 9.49 105 - Normal
05/03/2026 01 AM PDT 9.49 105 0 Normal
05/03/2026 02 AM PDT 9.49 105 0 Normal
05/03/2026 03 AM PDT 9.48 103 - Normal
05/03/2026 04 AM PDT 9.51 109 + Normal
05/03/2026 05 AM PDT 9.51 109 0 Normal
05/03/2026 06 AM PDT 9.50 107 - Normal
05/03/2026 07 AM PDT 9.50 107 0 Normal
05/03/2026 08 AM PDT 9.50 107 0 Normal
#
# FORECAST
#
# Date & Time (Local) Stage (Feet) Flow (cfs) Trend Forecast Status
# ---------------------------------------------------------------------------------
05/03/2026 09 AM PDT 9.51 109 Normal
05/03/2026 10 AM PDT 9.51 109 0 Normal
05/03/2026 11 AM PDT 9.52 112 + Normal
05/03/2026 12 PM PDT 9.52 112 0 Normal
05/03/2026 01 PM PDT 9.53 114 + Normal
05/03/2026 02 PM PDT 9.53 114 0 Normal
05/03/2026 03 PM PDT 9.53 114 0 Normal
05/03/2026 04 PM PDT 9.54 116 + Normal
05/03/2026 05 PM PDT 9.54 116 0 Normal
05/03/2026 06 PM PDT 9.54 116 0 Normal
05/03/2026 07 PM PDT 9.55 118 + Normal
05/03/2026 08 PM PDT 9.55 118 0 Normal
05/03/2026 09 PM PDT 9.55 118 0 Normal
05/03/2026 10 PM PDT 9.56 120 + Normal
05/03/2026 11 PM PDT 9.56 120 0 Normal
05/04/2026 12 AM PDT 9.56 120 0 Normal
05/04/2026 01 AM PDT 9.56 120 0 Normal
05/04/2026 02 AM PDT 9.56 120 0 Normal
05/04/2026 03 AM PDT 9.57 122 + Normal
05/04/2026 04 AM PDT 9.57 122 0 Normal
05/04/2026 05 AM PDT 9.57 122 0 Normal
05/04/2026 06 AM PDT 9.57 122 0 Normal
05/04/2026 07 AM PDT 9.57 122 0 Normal
05/04/2026 08 AM PDT 9.57 122 0 Normal
05/04/2026 09 AM PDT 9.57 122 0 Normal
05/04/2026 10 AM PDT 9.58 125 + Normal
05/04/2026 11 AM PDT 9.58 125 0 Normal
05/04/2026 12 PM PDT 9.58 125 0 Normal
05/04/2026 01 PM PDT 9.58 125 0 Normal
05/04/2026 02 PM PDT 9.58 125 0 Normal
05/04/2026 03 PM PDT 9.58 125 0 Normal
05/04/2026 04 PM PDT 9.58 125 0 Normal
05/04/2026 05 PM PDT 9.58 125 0 Normal
05/04/2026 06 PM PDT 9.58 125 0 Normal
05/04/2026 07 PM PDT 9.58 125 0 Normal
05/04/2026 08 PM PDT 9.58 125 0 Normal
05/04/2026 09 PM PDT 9.58 125 0 Normal
05/04/2026 10 PM PDT 9.58 125 0 Normal
05/04/2026 11 PM PDT 9.59 127 + Normal
05/05/2026 12 AM PDT 9.59 127 0 Normal
05/05/2026 01 AM PDT 9.59 127 0 Normal
05/05/2026 02 AM PDT 9.59 127 0 Normal
05/05/2026 03 AM PDT 9.59 127 0 Normal
05/05/2026 04 AM PDT 9.59 127 0 Normal
05/05/2026 05 AM PDT 9.59 127 0 Normal
05/05/2026 06 AM PDT 9.59 127 0 Normal
05/05/2026 07 AM PDT 9.59 127 0 Normal
05/05/2026 08 AM PDT 9.59 127 0 Normal
05/05/2026 09 AM PDT 9.59 127 0 Normal
05/05/2026 10 AM PDT 9.59 127 0 Normal
05/05/2026 11 AM PDT 9.59 127 0 Normal
05/05/2026 12 PM PDT 9.59 127 0 Normal
05/05/2026 01 PM PDT 9.59 127 0 Normal
05/05/2026 02 PM PDT 9.59 127 0 Normal
05/05/2026 03 PM PDT 9.59 127 0 Normal
05/05/2026 04 PM PDT 9.59 127 0 Normal
05/05/2026 05 PM PDT 9.59 127 0 Normal
05/05/2026 06 PM PDT 9.59 127 0 Normal
05/05/2026 07 PM PDT 9.59 127 0 Normal
05/05/2026 08 PM PDT 9.59 127 0 Normal
05/05/2026 09 PM PDT 9.59 127 0 Normal
05/05/2026 10 PM PDT 9.59 127 0 Normal
05/05/2026 11 PM PDT 9.59 127 0 Normal
05/06/2026 12 AM PDT 9.59 127 0 Normal
05/06/2026 01 AM PDT 9.59 127 0 Normal
05/06/2026 02 AM PDT 9.59 127 0 Normal
05/06/2026 03 AM PDT 9.59 127 0 Normal
05/06/2026 04 AM PDT 9.59 127 0 Normal
05/06/2026 05 AM PDT 9.59 127 0 Normal
05/06/2026 06 AM PDT 9.59 127 0 Normal
05/06/2026 07 AM PDT 9.59 127 0 Normal
05/06/2026 08 AM PDT 9.59 127 0 Normal
05/06/2026 09 AM PDT 9.59 127 0 Normal
05/06/2026 10 AM PDT 9.59 127 0 Normal
05/06/2026 11 AM PDT 9.59 127 0 Normal
05/06/2026 12 PM PDT 9.59 127 0 Normal
05/06/2026 01 PM PDT 9.59 127 0 Normal
05/06/2026 02 PM PDT 9.59 127 0 Normal
05/06/2026 03 PM PDT 9.59 127 0 Normal
05/06/2026 04 PM PDT 9.59 127 0 Normal
05/06/2026 05 PM PDT 9.59 127 0 Normal
05/06/2026 06 PM PDT 9.59 127 0 Normal
05/06/2026 07 PM PDT 9.59 127 0 Normal
05/06/2026 08 PM PDT 9.59 127 0 Normal
05/06/2026 09 PM PDT 9.59 127 0 Normal
05/06/2026 10 PM PDT 9.59 127 0 Normal
05/06/2026 11 PM PDT 9.59 127 0 Normal
05/07/2026 12 AM PDT 9.59 127 0 Normal
05/07/2026 01 AM PDT 9.59 127 0 Normal
05/07/2026 02 AM PDT 9.59 127 0 Normal
05/07/2026 03 AM PDT 9.59 127 0 Normal
05/07/2026 04 AM PDT 9.59 127 0 Normal
05/07/2026 05 AM PDT 9.59 127 0 Normal
05/07/2026 06 AM PDT 9.59 127 0 Normal
05/07/2026 07 AM PDT 9.59 127 0 Normal
05/07/2026 08 AM PDT 9.59 127 0 Normal
05/07/2026 09 AM PDT 9.59 127 0 Normal
05/07/2026 10 AM PDT 9.59 127 0 Normal
05/07/2026 11 AM PDT 9.59 127 0 Normal
05/07/2026 12 PM PDT 9.59 127 0 Normal
05/07/2026 01 PM PDT 9.59 127 0 Normal
05/07/2026 02 PM PDT 9.59 127 0 Normal
05/07/2026 03 PM PDT 9.59 127 0 Normal
05/07/2026 04 PM PDT 9.59 127 0 Normal
05/07/2026 05 PM PDT 9.59 127 0 Normal
05/07/2026 06 PM PDT 9.59 127 0 Normal
05/07/2026 07 PM PDT 9.59 127 0 Normal
05/07/2026 08 PM PDT 9.59 127 0 Normal
05/07/2026 09 PM PDT 9.59 127 0 Normal
05/07/2026 10 PM PDT 9.59 127 0 Normal
05/07/2026 11 PM PDT 9.59 127 0 Normal
05/08/2026 12 AM PDT 9.59 127 0 Normal
05/08/2026 01 AM PDT 9.59 127 0 Normal
05/08/2026 02 AM PDT 9.59 127 0 Normal
05/08/2026 03 AM PDT 9.59 127 0 Normal
05/08/2026 04 AM PDT 9.59 127 0 Normal
05/08/2026 05 AM PDT 9.59 127 0 Normal
#
# NOTE 1: Stages are rounded to the nearest hundredth (.01) of a foot.
# NOTE 2: Flows are rounded to the nearest (1) cfs.
# NOTE 3: Trends are determined using hourly change in unrounded stage and flow.
# NOTE 4: Maximum Values are determined using unrounded stage and flow.
|